Time;durP1;ratioP1;P1;durP2;ratioP2;P2;SDS_P1;SDS_P2;PMS_P1;PMS_P2;Temp;Humidity;BMP_temperature;BMP_pressure;BME280_temperature;BME280_humidity;BME280_pressure;Samples;Min_cycle;Max_cycle;Signal;HPM_P1;HPM_P2
2023/12/06 00:01:53;;;;;;;143.13;79.25;;;;;;;-0.21;100.00;100585.81;10486989;28;20044;-88
2023/12/06 00:06:54;;;;;;;137.90;69.53;;;;;;;-0.23;100.00;100582.22;10453955;28;20041;-86
2023/12/06 00:11:54;;;;;;;135.03;72.30;;;;;;;-0.20;100.00;100589.28;10479605;28;20115;-86
2023/12/06 00:16:56;;;;;;;136.17;71.57;;;;;;;-0.23;100.00;100589.00;10495050;28;20119;-85
2023/12/06 00:21:56;;;;;;;129.30;70.43;;;;;;;-0.23;100.00;100595.06;10487038;28;20040;-88
2023/12/06 00:26:57;;;;;;;125.43;69.10;;;;;;;-0.20;100.00;100603.06;10484817;28;20210;-86
2023/12/06 00:31:57;;;;;;;124.07;71.00;;;;;;;-0.19;100.00;100606.50;10452928;28;20132;-88
2023/12/06 00:36:58;;;;;;;122.13;67.57;;;;;;;-0.20;100.00;100612.41;10442135;28;20040;-87
2023/12/06 00:41:59;;;;;;;108.75;66.00;;;;;;;-0.26;100.00;100615.38;10482944;28;20132;-87
2023/12/06 00:46:59;;;;;;;115.63;65.23;;;;;;;-0.26;100.00;100628.25;10452739;28;20365;-87
2023/12/06 00:52:00;;;;;;;124.10;63.83;;;;;;;-0.22;100.00;100625.16;10489277;28;20056;-87
2023/12/06 00:57:00;;;;;;;109.27;62.90;;;;;;;-0.19;100.00;100633.16;10442758;28;20824;-87
2023/12/06 01:02:01;;;;;;;110.32;65.18;;;;;;;-0.18;100.00;100640.09;10468097;28;20425;-87
2023/12/06 01:07:01;;;;;;;107.57;66.85;;;;;;;-0.17;100.00;100646.13;10479055;28;20119;-87
2023/12/06 01:12:03;;;;;;;110.32;67.65;;;;;;;-0.12;100.00;100649.13;10497036;28;20529;-85
2023/12/06 01:17:03;;;;;;;116.43;63.78;;;;;;;-0.16;100.00;100661.72;10475614;28;20411;-87
2023/12/06 01:22:04;;;;;;;105.50;60.83;;;;;;;-0.19;100.00;100664.03;10451952;28;20103;-87
2023/12/06 01:27:04;;;;;;;98.43;62.73;;;;;;;-0.19;100.00;100669.16;10476469;28;20074;-87
2023/12/06 01:32:05;;;;;;;105.25;62.25;;;;;;;-0.21;100.00;100678.41;10457978;28;20044;-86
2023/12/06 01:37:06;;;;;;;109.13;69.97;;;;;;;-0.21;100.00;100677.50;10422828;28;20677;-86
2023/12/06 01:42:06;;;;;;;109.68;62.75;;;;;;;-0.17;100.00;100690.78;10424246;28;20553;-85
2023/12/06 01:47:07;;;;;;;104.47;64.10;;;;;;;-0.11;100.00;100694.66;10421729;28;20044;-86
2023/12/06 01:52:07;;;;;;;123.25;68.45;;;;;;;-0.09;100.00;100708.56;10385973;28;20049;-86
2023/12/06 01:57:08;;;;;;;129.60;64.28;;;;;;;-0.06;100.00;100711.41;10371571;28;20099;-86
2023/12/06 02:02:09;;;;;;;117.67;65.33;;;;;;;-0.05;100.00;100719.25;10388161;28;20053;-86
2023/12/06 02:07:09;;;;;;;131.52;73.90;;;;;;;0.01;100.00;100716.31;10400230;28;20064;-86
2023/12/06 02:12:10;;;;;;;125.20;72.30;;;;;;;0.04;100.00;100723.38;10380916;28;20507;-86
2023/12/06 02:17:10;;;;;;;124.60;70.23;;;;;;;0.05;100.00;100720.03;10383470;28;20041;-86
2023/12/06 02:22:11;;;;;;;131.60;72.00;;;;;;;0.07;100.00;100727.16;10380507;28;20609;-85
2023/12/06 02:27:11;;;;;;;128.00;70.65;;;;;;;0.06;100.00;100727.91;10364717;28;20045;-86
2023/12/06 02:32:12;;;;;;;146.05;72.70;;;;;;;0.08;100.00;100735.75;10389079;28;20045;-85
2023/12/06 02:37:12;;;;;;;144.90;75.07;;;;;;;0.07;100.00;100734.88;10380747;28;20045;-87
2023/12/06 02:42:13;;;;;;;129.20;65.10;;;;;;;0.13;100.00;100747.34;10366067;28;20048;-85
2023/12/06 02:47:14;;;;;;;130.43;73.43;;;;;;;0.16;100.00;100745.03;10381397;28;20059;-85
2023/12/06 02:52:15;;;;;;;133.27;74.53;;;;;;;0.16;100.00;100749.31;10381386;28;20052;-86
2023/12/06 02:57:16;;;;;;;123.28;67.85;;;;;;;0.16;100.00;100750.19;10384375;28;20053;-86
2023/12/06 03:02:16;;;;;;;104.47;64.13;;;;;;;0.15;100.00;100748.38;10390352;28;20048;-86
2023/12/06 03:07:17;;;;;;;114.57;64.95;;;;;;;0.17;100.00;100745.97;10389135;28;20055;-87
2023/12/06 03:12:17;;;;;;;116.85;67.47;;;;;;;0.22;100.00;100752.41;10391303;28;20049;-87
2023/12/06 03:17:18;;;;;;;111.72;62.85;;;;;;;0.22;100.00;100762.72;10387587;28;20134;-87
2023/12/06 03:22:18;;;;;;;98.78;59.45;;;;;;;0.24;100.00;100768.91;10390133;28;20519;-87
2023/12/06 03:27:19;;;;;;;117.13;63.70;;;;;;;0.21;100.00;100774.66;10386158;28;20536;-88
2023/12/06 03:32:19;;;;;;;98.43;61.25;;;;;;;0.21;100.00;100768.63;10386984;28;20520;-87
2023/12/06 03:37:20;;;;;;;100.15;58.03;;;;;;;0.22;100.00;100770.44;10387098;28;20044;-87
2023/12/06 03:42:20;;;;;;;97.10;58.20;;;;;;;0.22;100.00;100773.91;10387041;28;20049;-86
2023/12/06 03:47:21;;;;;;;96.40;60.25;;;;;;;0.24;100.00;100780.09;10424729;28;20044;-86
2023/12/06 03:52:22;;;;;;;98.07;60.40;;;;;;;0.25;100.00;100791.31;10437271;28;20571;-86
2023/12/06 03:57:22;;;;;;;98.78;56.55;;;;;;;0.28;100.00;100791.56;10428034;28;20053;-86
2023/12/06 04:02:22;;;;;;;95.20;56.88;;;;;;;0.27;100.00;100795.81;10439072;28;20052;-86
2023/12/06 04:07:23;;;;;;;92.40;55.45;;;;;;;0.27;100.00;100790.66;10409949;28;20048;-86
2023/12/06 04:12:24;;;;;;;101.47;60.42;;;;;;;0.26;100.00;100790.53;10419270;28;20046;-86
2023/12/06 04:17:24;;;;;;;92.53;56.07;;;;;;;0.24;100.00;100800.69;10426341;28;20049;-86
2023/12/06 04:22:25;;;;;;;95.03;57.75;;;;;;;0.29;100.00;100812.28;10426213;28;20660;-86
2023/12/06 04:27:25;;;;;;;102.15;56.15;;;;;;;0.34;100.00;100819.50;10414131;28;20101;-86
2023/12/06 04:32:26;;;;;;;89.00;54.53;;;;;;;0.34;100.00;100810.13;10424838;27;20040;-86
2023/12/06 04:37:27;;;;;;;94.95;54.75;;;;;;;0.37;100.00;100823.28;10426256;28;20048;-87
2023/12/06 04:42:27;;;;;;;98.90;60.72;;;;;;;0.37;100.00;100824.94;10414239;28;20044;-87
2023/12/06 04:47:28;;;;;;;94.78;53.30;;;;;;;0.38;100.00;100829.31;10425591;28;20076;-87
2023/12/06 04:52:28;;;;;;;94.22;53.90;;;;;;;0.35;100.00;100832.53;10425414;28;20066;-87
2023/12/06 04:57:29;;;;;;;84.25;52.83;;;;;;;0.38;100.00;100835.38;10435912;28;20037;-86
2023/12/06 05:02:29;;;;;;;93.35;53.17;;;;;;;0.42;100.00;100840.03;10407543;28;21249;-86
2023/12/06 05:07:30;;;;;;;85.70;54.13;;;;;;;0.44;100.00;100845.28;10408261;28;20051;-86
2023/12/06 05:12:30;;;;;;;88.13;55.58;;;;;;;0.47;100.00;100848.16;10363620;28;20037;-87
2023/12/06 05:17:31;;;;;;;78.05;52.58;;;;;;;0.49;100.00;100846.59;10423889;28;20047;-90
2023/12/06 05:22:31;;;;;;;104.25;56.08;;;;;;;0.52;100.00;100848.56;10395466;28;20060;-87
2023/12/06 05:27:33;;;;;;;83.38;55.13;;;;;;;0.54;100.00;100858.22;10421888;28;20063;-88
2023/12/06 05:32:33;;;;;;;91.70;58.35;;;;;;;0.54;100.00;100863.38;10423992;28;20051;-84
2023/12/06 05:37:34;;;;;;;88.03;52.95;;;;;;;0.55;100.00;100870.31;10424650;28;20049;-87
2023/12/06 05:42:37;;;;;;;83.93;53.75;;;;;;;0.58;100.00;100874.84;10406937;28;20060;-83
2023/12/06 05:47:37;;;;;;;87.72;53.45;;;;;;;0.56;100.00;100872.13;10414633;28;20044;-82
2023/12/06 05:52:38;;;;;;;90.63;53.47;;;;;;;0.55;100.00;100885.78;10423070;28;20033;-88
2023/12/06 05:57:38;;;;;;;97.90;52.15;;;;;;;0.52;100.00;100880.34;10417499;28;20116;-86
2023/12/06 06:02:40;;;;;;;98.95;57.95;;;;;;;0.55;100.00;100888.34;10427193;28;20052;-89
2023/12/06 06:07:40;;;;;;;82.85;56.15;;;;;;;0.58;100.00;100885.16;10412293;28;21782;-89
2023/12/06 06:12:41;;;;;;;89.13;57.08;;;;;;;0.58;100.00;100883.47;10412891;28;20223;-89
2023/12/06 06:17:41;;;;;;;98.00;55.55;;;;;;;0.60;100.00;100893.00;10420948;28;20573;-89
2023/12/06 06:22:42;;;;;;;82.22;52.88;;;;;;;0.60;100.00;100891.34;10447729;28;20124;-90
2023/12/06 06:27:42;;;;;;;66.20;39.70;;;;;;;0.64;100.00;100902.81;10395265;28;20040;-87
2023/12/06 06:32:43;;;;;;;86.97;51.97;;;;;;;0.69;100.00;100920.50;10418797;28;20049;-87
2023/12/06 06:37:43;;;;;;;93.03;54.55;;;;;;;0.76;100.00;100919.34;10425200;28;20099;-91
2023/12/06 06:42:43;;;;;;;87.45;55.38;;;;;;;0.83;100.00;100928.53;10420479;28;20065;-88
2023/12/06 06:47:44;;;;;;;97.20;59.92;;;;;;;0.92;100.00;100928.41;10416698;28;20033;-87
2023/12/06 06:52:45;;;;;;;102.45;56.42;;;;;;;0.96;100.00;100936.56;10416535;28;20044;-85
2023/12/06 06:57:46;;;;;;;91.68;56.58;;;;;;;0.98;100.00;100942.75;10435790;28;20048;-86
2023/12/06 07:02:47;;;;;;;93.82;56.47;;;;;;;1.05;100.00;100939.03;10423642;28;20489;-86
2023/12/06 07:07:47;;;;;;;91.45;55.10;;;;;;;1.09;100.00;100946.25;10432722;28;20144;-86
2023/12/06 07:12:48;;;;;;;101.47;60.83;;;;;;;1.10;100.00;100950.63;10432508;28;20048;-87
2023/12/06 07:17:49;;;;;;;93.18;55.20;;;;;;;1.11;100.00;100952.44;10429625;28;20045;-84
2023/12/06 07:22:49;;;;;;;97.15;55.42;;;;;;;1.13;100.00;100950.91;10393788;28;20041;-85
2023/12/06 07:27:50;;;;;;;97.53;57.10;;;;;;;1.13;100.00;100957.75;10377755;28;20079;-84
2023/12/06 07:32:50;;;;;;;107.78;66.03;;;;;;;1.19;100.00;100967.69;10394857;28;20045;-88
2023/12/06 07:37:51;;;;;;;83.50;53.33;;;;;;;1.22;100.00;100965.38;10454561;28;20037;-83
2023/12/06 07:42:51;;;;;;;100.82;61.72;;;;;;;1.25;100.00;100976.88;10417277;28;20098;-82
2023/12/06 07:47:52;;;;;;;95.50;54.20;;;;;;;1.30;100.00;100991.06;10441358;28;20569;-83
2023/12/06 07:52:53;;;;;;;87.18;49.97;;;;;;;1.33;100.00;100995.56;10451451;28;20244;-82
2023/12/06 07:57:54;;;;;;;99.20;59.80;;;;;;;1.37;100.00;100991.59;10484468;28;20075;-85
2023/12/06 08:02:54;;;;;;;85.13;52.40;;;;;;;1.41;100.00;100997.13;10465185;28;20395;-83
2023/12/06 08:07:55;;;;;;;85.30;54.13;;;;;;;1.41;100.00;101002.28;10471803;28;20083;-82
2023/12/06 08:12:56;;;;;;;84.10;50.95;;;;;;;1.42;100.00;101009.25;10465479;28;20044;-82
2023/12/06 08:18:00;;;;;;;80.10;49.45;;;;;;;1.45;100.00;101011.22;10457225;28;20036;-83
2023/12/06 08:23:03;;;;;;;87.85;51.38;;;;;;;1.52;100.00;101021.28;10461156;28;20499;-84
2023/12/06 08:28:04;;;;;;;85.85;50.20;;;;;;;1.54;100.00;101008.50;10434986;28;20033;-85
2023/12/06 08:33:07;;;;;;;82.32;49.88;;;;;;;1.57;100.00;101012.28;10470571;28;20048;-87
2023/12/06 08:38:07;;;;;;;78.55;49.90;;;;;;;1.58;100.00;101014.09;10461459;28;20399;-83
2023/12/06 08:43:09;;;;;;;79.63;49.15;;;;;;;1.34;100.00;101019.69;10467949;28;20071;-84
2023/12/06 08:48:10;;;;;;;78.20;45.75;;;;;;;1.02;100.00;101026.41;10473967;28;20052;-82
2023/12/06 08:53:10;;;;;;;77.13;44.13;;;;;;;0.87;100.00;101037.16;10440345;28;20041;-84
2023/12/06 08:58:11;;;;;;;75.25;49.97;;;;;;;0.97;100.00;101041.47;10482925;28;20407;-83
2023/12/06 09:03:12;;;;;;;79.95;48.13;;;;;;;1.18;100.00;101046.72;10495632;28;20051;-80
2023/12/06 09:08:12;;;;;;;89.18;51.63;;;;;;;1.31;100.00;101053.84;10481963;28;20050;-80
2023/12/06 09:13:13;;;;;;;80.65;48.63;;;;;;;1.40;100.00;101062.38;10458652;28;20060;-83
2023/12/06 09:18:13;;;;;;;82.88;52.67;;;;;;;1.82;100.00;101058.25;10424311;28;20469;-81
2023/12/06 09:23:14;;;;;;;94.03;54.47;;;;;;;2.33;100.00;101056.47;10455131;28;20139;-80
2023/12/06 09:28:15;;;;;;;81.55;51.20;;;;;;;2.77;100.00;101063.50;10446766;28;20123;-84
2023/12/06 09:33:15;;;;;;;83.15;52.25;;;;;;;3.01;100.00;101066.28;10432966;28;20055;-86
2023/12/06 09:38:16;;;;;;;83.65;44.60;;;;;;;3.07;100.00;101069.38;10436587;28;20556;-83
2023/12/06 09:43:18;;;;;;;60.45;37.58;;;;;;;3.15;100.00;101068.31;10464072;28;20127;-88
2023/12/06 09:48:18;;;;;;;51.92;32.95;;;;;;;3.27;100.00;101075.25;10485402;28;20044;-89
2023/12/06 09:53:21;;;;;;;50.55;32.67;;;;;;;3.40;100.00;101070.28;10491406;28;20150;-84
2023/12/06 09:58:22;;;;;;;43.53;26.80;;;;;;;3.48;100.00;101076.06;10485497;28;20064;-84
2023/12/06 10:03:22;;;;;;;45.35;26.85;;;;;;;3.75;100.00;101077.34;10510926;28;20070;-91
2023/12/06 10:08:23;;;;;;;38.75;23.05;;;;;;;4.05;100.00;101072.72;10477948;28;20127;-83
2023/12/06 10:13:36;;;;;;;40.65;23.67;;;;;;;4.10;100.00;101073.09;10480328;28;20040;-82
2023/12/06 10:18:37;;;;;;;37.78;25.25;;;;;;;3.77;100.00;101056.75;10476291;28;20036;-87
2023/12/06 10:23:37;;;;;;;32.70;23.38;;;;;;;3.66;100.00;101056.81;10488357;28;20136;-85
2023/12/06 10:28:38;;;;;;;35.97;24.92;;;;;;;4.10;100.00;101039.44;10504440;28;20538;-84
2023/12/06 10:33:39;;;;;;;34.85;19.40;;;;;;;4.52;100.00;101025.31;10503789;28;20074;-84
2023/12/06 10:38:42;;;;;;;35.10;18.98;;;;;;;4.57;100.00;100998.84;10472226;28;20040;-85
2023/12/06 10:43:43;;;;;;;34.25;20.42;;;;;;;5.03;100.00;100975.34;10416290;28;20041;-90
2023/12/06 10:48:43;;;;;;;26.80;17.13;;;;;;;6.07;100.00;100946.16;10432332;28;20067;-84
2023/12/06 10:53:44;;;;;;;25.38;17.70;;;;;;;5.46;100.00;100938.56;10407327;28;20412;-83
2023/12/06 10:58:44;;;;;;;27.08;17.27;;;;;;;5.18;100.00;100952.19;10444555;28;20228;-82
2023/12/06 11:03:45;;;;;;;31.88;19.52;;;;;;;4.66;100.00;100982.25;10460164;28;20075;-85
2023/12/06 11:09:13;;;;;;;24.65;15.75;;;;;;;4.41;100.00;100992.50;10478528;28;20124;-84
2023/12/06 11:14:38;;;;;;;23.92;14.55;;;;;;;4.41;100.00;100989.91;10500166;28;20052;-85
2023/12/06 11:19:39;;;;;;;29.50;17.08;;;;;;;4.61;100.00;100993.97;10489239;28;20495;-87
2023/12/06 11:24:39;;;;;;;28.80;18.42;;;;;;;4.95;100.00;100987.75;10482686;28;20132;-94
2023/12/06 11:29:40;;;;;;;26.27;14.77;;;;;;;5.13;100.00;100993.34;10488534;28;20139;-93
2023/12/06 11:34:40;;;;;;;18.85;13.38;;;;;;;4.82;100.00;101001.53;10494068;28;20051;-86
2023/12/06 11:39:41;;;;;;;22.48;13.38;;;;;;;4.77;100.00;100995.09;10486990;28;20116;-86
2023/12/06 11:44:51;;;;;;;23.75;15.48;;;;;;;5.19;100.00;100998.09;10449852;28;20077;-86
2023/12/06 11:49:53;;;;;;;21.70;13.73;;;;;;;5.22;100.00;101016.50;10466549;28;20036;-86
2023/12/06 11:54:53;;;;;;;22.73;13.27;;;;;;;5.03;100.00;101022.03;10428269;28;20074;-86
2023/12/06 11:59:54;;;;;;;20.63;14.05;;;;;;;4.96;100.00;101031.06;10406053;28;20708;-86
2023/12/06 12:04:54;;;;;;;22.13;14.60;;;;;;;5.12;100.00;101021.00;10460379;28;20108;-86
2023/12/06 12:09:55;;;;;;;21.83;14.60;;;;;;;5.43;100.00;101031.00;10451633;28;20036;-86
2023/12/06 12:14:56;;;;;;;22.85;14.73;;;;;;;5.44;100.00;101035.41;10468338;28;20116;-85
2023/12/06 12:19:56;;;;;;;21.08;14.68;;;;;;;5.28;100.00;101048.06;10485614;28;20478;-84
2023/12/06 12:24:57;;;;;;;21.20;13.27;;;;;;;4.97;100.00;101041.53;10468521;28;20128;-84
2023/12/06 12:29:57;;;;;;;20.42;14.30;;;;;;;4.76;100.00;101050.34;10427701;28;20167;-84
2023/12/06 12:34:58;;;;;;;19.27;12.32;;;;;;;4.38;100.00;101042.41;10445101;28;20439;-86
2023/12/06 12:40:00;;;;;;;22.23;13.87;;;;;;;4.46;100.00;101048.19;10437143;28;20064;-84
2023/12/06 12:45:01;;;;;;;23.47;11.83;;;;;;;4.57;100.00;101058.47;10427558;28;20123;-85
2023/12/06 12:50:01;;;;;;;24.92;15.15;;;;;;;4.74;100.00;101054.50;10496376;28;20044;-85
2023/12/06 12:55:03;;;;;;;20.80;13.75;;;;;;;4.95;100.00;101052.63;10425760;28;20041;-85
2023/12/06 13:00:05;;;;;;;21.17;12.88;;;;;;;5.18;100.00;101063.75;10445451;28;20036;-88
2023/12/06 13:05:06;;;;;;;24.17;11.90;;;;;;;5.03;100.00;101060.94;10442866;28;20377;-87
2023/12/06 13:10:08;;;;;;;20.55;12.32;;;;;;;4.65;100.00;101067.72;10429850;28;20111;-88
2023/12/06 13:15:08;;;;;;;18.13;12.10;;;;;;;4.20;100.00;101067.84;10417695;28;20114;-90
2023/12/06 13:20:09;;;;;;;24.05;13.55;;;;;;;4.08;100.00;101075.56;10439969;28;20070;-89
2023/12/06 13:25:10;;;;;;;21.17;14.07;;;;;;;4.30;100.00;101076.31;10440999;28;20452;-89
2023/12/06 13:30:11;;;;;;;16.58;11.57;;;;;;;4.72;100.00;101074.25;10439564;28;20124;-87
2023/12/06 13:35:12;;;;;;;18.27;10.38;;;;;;;4.70;100.00;101072.44;10446068;28;20045;-87
2023/12/06 13:40:17;;;;;;;18.95;10.25;;;;;;;4.56;100.00;101080.88;10440282;28;20481;-83
2023/12/06 13:45:20;;;;;;;17.67;10.27;;;;;;;4.45;100.00;101081.75;10438780;28;20068;-84
2023/12/06 13:50:21;;;;;;;13.27;8.38;;;;;;;4.34;100.00;101087.03;10440005;28;20137;-85
2023/12/06 13:55:22;;;;;;;17.80;10.88;;;;;;;4.30;100.00;101091.88;10458191;28;20045;-84
2023/12/06 14:00:23;;;;;;;16.13;9.65;;;;;;;4.54;100.00;101079.84;10489087;28;20094;-83
2023/12/06 14:05:25;;;;;;;19.17;8.45;;;;;;;4.51;100.00;101069.25;10481084;28;20052;-85
2023/12/06 14:10:25;;;;;;;15.80;7.33;;;;;;;4.62;100.00;101083.03;10477631;28;20476;-85
2023/12/06 14:15:26;;;;;;;24.35;9.57;;;;;;;4.84;100.00;101088.13;10463821;28;20089;-83
2023/12/06 14:20:26;;;;;;;15.00;7.35;;;;;;;4.78;100.00;101095.44;10483893;28;20139;-85
2023/12/06 14:25:27;;;;;;;16.65;8.50;;;;;;;4.77;100.00;101101.41;10476734;28;20037;-83
2023/12/06 14:30:27;;;;;;;15.82;8.73;;;;;;;4.64;100.00;101100.50;10481279;28;20044;-84
2023/12/06 14:35:28;;;;;;;17.55;8.38;;;;;;;4.58;100.00;101107.81;10480118;28;20060;-84
2023/12/06 14:40:30;;;;;;;14.00;7.07;;;;;;;4.45;100.00;101121.53;10481345;28;21396;-86
2023/12/06 14:45:30;;;;;;;19.90;9.50;;;;;;;4.13;100.00;101130.34;10462356;28;20028;-86
2023/12/06 14:50:31;;;;;;;21.70;10.60;;;;;;;3.99;100.00;101131.81;10480609;28;20071;-86
2023/12/06 14:55:31;;;;;;;14.48;8.25;;;;;;;3.92;100.00;101140.81;10488499;28;20395;-85
2023/12/06 15:00:32;;;;;;;16.58;10.40;;;;;;;3.84;100.00;101152.25;10490548;28;20131;-86
2023/12/06 15:05:32;;;;;;;17.45;12.07;;;;;;;3.74;100.00;101179.09;10486487;28;20101;-87
2023/12/06 15:10:34;;;;;;;16.50;9.57;;;;;;;3.85;100.00;101176.44;10489149;28;20124;-85
2023/12/06 15:15:35;;;;;;;13.10;4.38;;;;;;;3.80;100.00;101174.41;10486052;28;20040;-85
2023/12/06 15:20:35;;;;;;;8.52;3.50;;;;;;;3.40;100.00;101181.53;10469015;28;20037;-86
2023/12/06 15:25:37;;;;;;;6.93;3.70;;;;;;;2.97;100.00;101198.69;10488997;28;20523;-85
2023/12/06 15:30:37;;;;;;;6.03;4.03;;;;;;;2.60;100.00;101210.31;10487364;28;20391;-86
2023/12/06 15:35:38;;;;;;;7.70;4.85;;;;;;;2.42;100.00;101222.59;10470554;28;20051;-87
2023/12/06 15:40:38;;;;;;;8.73;5.07;;;;;;;2.30;100.00;101227.59;10486091;28;20128;-87
2023/12/06 15:45:39;;;;;;;10.13;4.38;;;;;;;2.12;100.00;101228.56;10486863;28;20068;-87
2023/12/06 15:50:39;;;;;;;7.95;6.10;;;;;;;2.07;100.00;101243.66;10484862;28;20131;-86
2023/12/06 15:55:40;;;;;;;6.95;5.20;;;;;;;2.02;100.00;101247.53;10481475;28;20195;-86
2023/12/06 16:00:40;;;;;;;8.55;6.07;;;;;;;1.66;100.00;101249.53;10485038;28;20103;-84
2023/12/06 16:05:41;;;;;;;8.25;5.00;;;;;;;1.20;100.00;101256.63;10468542;28;20501;-84
2023/12/06 16:10:42;;;;;;;7.90;6.25;;;;;;;0.81;100.00;101265.06;10485517;28;20061;-87
2023/12/06 16:15:44;;;;;;;8.38;5.78;;;;;;;0.65;100.00;101273.94;10468512;28;20116;-85
2023/12/06 16:20:44;;;;;;;9.27;6.45;;;;;;;0.35;100.00;101280.56;10489257;28;20429;-85
2023/12/06 16:25:45;;;;;;;12.40;6.82;;;;;;;0.16;100.00;101283.03;10485649;28;20127;-85
2023/12/06 16:30:46;;;;;;;14.15;6.50;;;;;;;0.12;100.00;101286.09;10496051;28;20089;-85
2023/12/06 16:35:46;;;;;;;15.98;8.45;;;;;;;0.04;100.00;101300.81;10517550;28;20064;-87
2023/12/06 16:40:49;;;;;;;16.83;9.20;;;;;;;0.23;100.00;101311.19;10486661;28;20472;-85
2023/12/06 16:45:50;;;;;;;21.27;11.75;;;;;;;0.42;100.00;101320.69;10484157;28;20492;-87
2023/12/06 16:50:50;;;;;;;27.23;16.42;;;;;;;0.83;100.00;101334.00;10464811;28;20101;-84
2023/12/06 16:55:51;;;;;;;24.88;13.50;;;;;;;1.33;100.00;101348.00;10483545;28;20135;-84
2023/12/06 17:00:52;;;;;;;19.23;11.33;;;;;;;1.56;100.00;101326.88;10485189;28;20044;-84
2023/12/06 17:05:52;;;;;;;13.98;10.80;;;;;;;1.76;100.00;101345.09;10465969;28;20480;-85
2023/12/06 17:10:54;;;;;;;14.88;11.90;;;;;;;1.92;100.00;101355.91;10465435;28;20125;-85
2023/12/06 17:15:55;;;;;;;17.58;11.90;;;;;;;1.94;100.00;101360.41;10481504;28;20071;-86
2023/12/06 17:20:55;;;;;;;22.33;13.52;;;;;;;1.84;100.00;101366.44;10484185;28;20127;-86
2023/12/06 17:25:56;;;;;;;16.90;12.10;;;;;;;1.68;100.00;101369.28;10481761;28;20119;-86
2023/12/06 17:30:57;;;;;;;17.50;12.02;;;;;;;1.52;100.00;101377.31;10482561;28;20460;-85
2023/12/06 17:35:57;;;;;;;22.77;14.50;;;;;;;1.36;100.00;101372.41;10483685;28;20050;-85
2023/12/06 17:40:58;;;;;;;17.73;13.05;;;;;;;1.30;100.00;101377.91;10480223;28;20131;-86
2023/12/06 17:45:58;;;;;;;21.85;14.38;;;;;;;1.09;100.00;101381.94;10480949;28;20082;-85
2023/12/06 17:50:59;;;;;;;22.13;14.93;;;;;;;0.70;100.00;101385.13;10481593;28;20181;-85
2023/12/06 17:55:59;;;;;;;30.90;17.23;;;;;;;0.61;100.00;101386.84;10464172;28;20128;-86
2023/12/06 18:01:00;;;;;;;26.58;17.10;;;;;;;0.43;100.00;101397.19;10486516;28;20124;-85
2023/12/06 18:06:01;;;;;;;24.83;18.30;;;;;;;0.25;100.00;101397.22;10462884;28;20037;-85
2023/12/06 18:11:02;;;;;;;35.78;19.35;;;;;;;0.05;100.00;101399.50;10478444;28;20123;-86
2023/12/06 18:16:04;;;;;;;30.90;21.45;;;;;;;-0.17;100.00;101407.69;10480727;28;20040;-86
2023/12/06 18:21:05;;;;;;;32.30;22.27;;;;;;;-0.31;100.00;101408.88;10478796;28;20400;-84
2023/12/06 18:26:06;;;;;;;26.83;20.08;;;;;;;-0.44;100.00;101404.16;10465545;28;20305;-84
2023/12/06 18:31:06;;;;;;;35.22;25.23;;;;;;;-0.48;100.00;101415.81;10488651;28;20128;-84
2023/12/06 18:36:07;;;;;;;45.42;25.67;;;;;;;-0.58;100.00;101425.94;10488170;28;20032;-84
2023/12/06 18:41:08;;;;;;;46.10;27.17;;;;;;;-0.63;100.00;101427.13;10472519;28;20044;-84
2023/12/06 18:46:08;;;;;;;48.40;29.10;;;;;;;-0.70;100.00;101423.00;10487731;28;20052;-84
2023/12/06 18:51:09;;;;;;;42.27;25.67;;;;;;;-0.77;100.00;101436.00;10489972;28;20480;-84
2023/12/06 18:56:09;;;;;;;49.73;30.53;;;;;;;-0.79;100.00;101442.63;10488897;28;20131;-84
2023/12/06 19:01:10;;;;;;;49.40;31.93;;;;;;;-0.78;100.00;101441.88;10472760;28;20170;-85
2023/12/06 19:06:10;;;;;;;57.23;34.43;;;;;;;-0.86;100.00;101445.34;10470785;28;20045;-87
2023/12/06 19:11:12;;;;;;;47.15;30.80;;;;;;;-0.96;100.00;101448.63;10470670;28;20040;-84
2023/12/06 19:16:12;;;;;;;45.72;32.45;;;;;;;-0.93;100.00;101447.28;10472527;28;20463;-85
2023/12/06 19:21:15;;;;;;;60.13;35.80;;;;;;;-0.89;100.00;101446.84;10469763;28;20119;-85
2023/12/06 19:26:15;;;;;;;59.03;36.75;;;;;;;-0.92;100.00;101455.91;10470462;28;20594;-86
2023/12/06 19:31:16;;;;;;;72.80;44.43;;;;;;;-0.90;100.00;101455.31;10469826;28;20036;-82
2023/12/06 19:36:16;;;;;;;70.70;43.17;;;;;;;-0.92;100.00;101461.94;10488398;28;20186;-86
2023/12/06 19:41:18;;;;;;;60.30;39.13;;;;;;;-1.11;100.00;101453.09;10484149;28;20036;-83
2023/12/06 19:46:18;;;;;;;68.07;43.05;;;;;;;-1.17;100.00;101460.16;10427106;28;20489;-83
2023/12/06 19:51:19;;;;;;;60.83;42.30;;;;;;;-1.26;100.00;101460.13;10438167;28;20044;-81
2023/12/06 19:56:20;;;;;;;68.47;42.07;;;;;;;-1.38;100.00;101465.78;10483669;28;20123;-80
2023/12/06 20:01:20;;;;;;;72.50;43.60;;;;;;;-1.45;100.00;101476.16;10485622;28;20048;-85
2023/12/06 20:06:21;;;;;;;67.50;41.17;;;;;;;-1.51;100.00;101481.53;10478268;28;20040;-92
2023/12/06 20:11:21;;;;;;;70.80;43.43;;;;;;;-1.56;100.00;101484.38;10436064;28;20160;-86
2023/12/06 20:16:22;;;;;;;68.57;43.93;;;;;;;-1.52;100.00;101492.56;10433539;28;20124;-84
2023/12/06 20:21:24;;;;;;;74.00;46.33;;;;;;;-1.49;100.00;101490.31;10436737;28;20128;-85
2023/12/06 20:26:24;;;;;;;79.10;49.47;;;;;;;-1.53;100.00;101505.25;10431113;28;20049;-84
2023/12/06 20:31:25;;;;;;;80.00;52.73;;;;;;;-1.33;100.00;101495.44;10439218;28;20088;-87
2023/12/06 20:36:25;;;;;;;75.30;50.23;;;;;;;-1.29;100.00;101503.47;10460810;28;20051;-85
2023/12/06 20:41:26;;;;;;;94.43;52.57;;;;;;;-1.31;100.00;101495.56;10445640;28;20184;-87
2023/12/06 20:46:26;;;;;;;76.23;53.83;;;;;;;-1.38;100.00;101498.25;10461268;28;20198;-81
2023/12/06 20:51:32;;;;;;;80.33;47.50;;;;;;;-1.63;100.00;101491.44;10428595;28;20559;-83
2023/12/06 20:56:33;;;;;;;90.97;53.60;;;;;;;-1.71;100.00;101492.28;10429758;28;20028;-87
2023/12/06 21:01:34;;;;;;;81.20;51.33;;;;;;;-1.83;100.00;101494.44;10481560;28;20044;-85
2023/12/06 21:06:34;;;;;;;82.83;47.97;;;;;;;-2.00;100.00;101496.84;10475661;28;20124;-87
2023/12/06 21:11:36;;;;;;;58.07;40.33;;;;;;;-2.02;100.00;101508.59;10462961;28;20123;-82
2023/12/06 21:16:37;;;;;;;89.68;48.60;;;;;;;-2.04;100.00;101503.31;10475117;28;20105;-83
2023/12/06 21:21:37;;;;;;;100.20;59.93;;;;;;;-1.73;100.00;101518.50;10478609;28;20133;-83
2023/12/06 21:26:39;;;;;;;80.63;45.77;;;;;;;-1.78;100.00;101511.22;10443073;28;20033;-82
2023/12/06 21:31:39;;;;;;;89.75;59.50;;;;;;;-1.92;100.00;101511.41;10430454;28;20044;-86
2023/12/06 21:36:40;;;;;;;98.37;60.73;;;;;;;-2.02;100.00;101513.72;10439575;28;20120;-83
2023/12/06 21:41:41;;;;;;;100.00;56.63;;;;;;;-2.07;100.00;101516.69;10446490;28;20040;-84
2023/12/06 21:46:41;;;;;;;94.97;60.27;;;;;;;-2.03;100.00;101524.72;10462492;28;20036;-82
2023/12/06 21:51:42;;;;;;;112.10;62.83;;;;;;;-2.16;100.00;101535.31;10475042;28;20507;-82
2023/12/06 21:56:42;;;;;;;107.67;66.77;;;;;;;-2.07;100.00;101526.06;10476270;28;20044;-82
2023/12/06 22:01:43;;;;;;;111.33;64.30;;;;;;;-1.93;100.00;101527.53;10473371;28;20045;-82
2023/12/06 22:06:43;;;;;;;93.03;59.97;;;;;;;-2.04;100.00;101530.59;10476733;28;20045;-82
2023/12/06 22:11:46;;;;;;;105.07;62.57;;;;;;;-2.17;100.00;101534.41;10460026;28;20419;-83
2023/12/06 22:16:47;;;;;;;112.15;62.05;;;;;;;-2.05;100.00;101537.41;10480671;28;20052;-84
2023/12/06 22:21:48;;;;;;;108.63;64.10;;;;;;;-2.03;100.00;101538.47;10472030;28;20914;-85
2023/12/06 22:26:49;;;;;;;113.55;64.97;;;;;;;-2.06;100.00;101543.28;10462961;28;20135;-83